createdAt,value
2015-08-30T00:00:09.688Z,74964
2015-08-30T00:00:22.078Z,74967
2015-08-30T00:00:34.455Z,74963
2015-08-30T00:00:46.862Z,74966
2015-08-30T00:00:59.268Z,74968
2015-08-30T00:01:11.643Z,74962
2015-08-30T00:01:24.018Z,74970
2015-08-30T00:01:36.395Z,74964
2015-08-30T00:01:48.770Z,74965
2015-08-30T00:02:01.145Z,74967
2015-08-30T00:02:13.520Z,74956
2015-08-30T00:02:25.910Z,74963
2015-08-30T00:02:38.287Z,74960
2015-08-30T00:02:50.678Z,74957
2015-08-30T00:03:03.053Z,74962
2015-08-30T00:03:15.444Z,74956
2015-08-30T00:03:27.834Z,74963
2015-08-30T00:03:40.243Z,74961
2015-08-30T00:03:52.664Z,74954
2015-08-30T00:04:05.071Z,74963
2015-08-30T00:04:17.477Z,74961
2015-08-30T00:04:29.883Z,74958
2015-08-30T00:04:42.291Z,74960
2015-08-30T00:04:54.698Z,74961
2015-08-30T00:05:07.104Z,74952
2015-08-30T00:05:19.526Z,74956
2015-08-30T00:05:31.916Z,74961
2015-08-30T00:05:44.325Z,74955
2015-08-30T00:05:55.997Z,74954
2015-08-30T00:06:08.372Z,74956
2015-08-30T00:06:20.043Z,74961
2015-08-30T00:06:32.418Z,74955
2015-08-30T00:06:44.794Z,74955
2015-08-30T00:06:57.169Z,74959
2015-08-30T00:07:09.544Z,74957
2015-08-30T00:07:21.935Z,74953
2015-08-30T00:07:34.310Z,74950
2015-08-30T00:07:46.672Z,74957
2015-08-30T00:07:59.063Z,74955
2015-08-30T00:08:11.438Z,74953
2015-08-30T00:08:23.813Z,74950
2015-08-30T00:08:36.188Z,74962
2015-08-30T00:08:48.581Z,74956
2015-08-30T00:09:00.956Z,74948
2015-08-30T00:09:13.331Z,74950
2015-08-30T00:09:25.706Z,74954
2015-08-30T00:09:38.081Z,74956
2015-08-30T00:09:50.458Z,74948
2015-08-30T00:10:02.833Z,74949
2015-08-30T00:10:15.223Z,74957
2015-08-30T00:10:27.598Z,74958
2015-08-30T00:10:39.989Z,74955
2015-08-30T00:10:52.366Z,74952
2015-08-30T00:11:04.741Z,74956
2015-08-30T00:11:17.116Z,74959
2015-08-30T00:11:29.491Z,74952
2015-08-30T00:11:41.882Z,74955
2015-08-30T00:11:54.290Z,74962
2015-08-30T00:12:05.962Z,74948
2015-08-30T00:12:17.649Z,74954
2015-08-30T00:12:30.040Z,74954
2015-08-30T00:12:42.415Z,74950
2015-08-30T00:12:54.839Z,74948
2015-08-30T00:13:07.245Z,74957
2015-08-30T00:13:19.636Z,74959
2015-08-30T00:13:32.011Z,74954
2015-08-30T00:13:44.401Z,74950
2015-08-30T00:13:56.809Z,74956
2015-08-30T00:14:09.200Z,74957
2015-08-30T00:14:21.606Z,74947
2015-08-30T00:14:34.013Z,74952
2015-08-30T00:14:46.419Z,74956
2015-08-30T00:14:58.107Z,74954
2015-08-30T00:15:10.498Z,74952
2015-08-30T00:15:22.873Z,74951
2015-08-30T00:15:35.248Z,74955
2015-08-30T00:15:47.623Z,74953
2015-08-30T00:16:00.001Z,74953
2015-08-30T00:16:12.376Z,74954
2015-08-30T00:16:24.751Z,74953
2015-08-30T00:16:37.126Z,74955
2015-08-30T00:16:49.517Z,74954
2015-08-30T00:17:01.893Z,74951
2015-08-30T00:17:14.268Z,74948
2015-08-30T00:17:26.643Z,74948
2015-08-30T00:17:39.018Z,74950
2015-08-30T00:17:51.393Z,74956
2015-08-30T00:18:03.066Z,74956
2015-08-30T00:18:15.457Z,74952
2015-08-30T00:18:27.832Z,74956
2015-08-30T00:18:40.207Z,74952
2015-08-30T00:18:52.582Z,74955
2015-08-30T00:19:04.960Z,74955
2015-08-30T00:19:17.335Z,74949
2015-08-30T00:19:29.710Z,74952
2015-08-30T00:19:42.085Z,74946
2015-08-30T00:19:54.460Z,74951
2015-08-30T00:20:06.837Z,74947
2015-08-30T00:20:18.509Z,74949
2015-08-30T00:20:30.884Z,74952
2015-08-30T00:20:43.259Z,74946
2015-08-30T00:20:54.946Z,74943
2015-08-30T00:21:07.354Z,74946
2015-08-30T00:21:19.744Z,74953
2015-08-30T00:21:32.135Z,74948
2015-08-30T00:21:44.510Z,74953
2015-08-30T00:21:56.901Z,74951
2015-08-30T00:22:09.310Z,74953
2015-08-30T00:22:21.700Z,74952
2015-08-30T00:22:34.107Z,74951
2015-08-30T00:22:46.513Z,74949
2015-08-30T00:22:58.919Z,74949
2015-08-30T00:23:11.326Z,74949
2015-08-30T00:23:23.733Z,74952
2015-08-30T00:23:36.123Z,74950
2015-08-30T00:23:48.545Z,74948
2015-08-30T00:24:00.951Z,74948
2015-08-30T00:24:13.376Z,74952
2015-08-30T00:24:25.767Z,74946
2015-08-30T00:24:38.142Z,74948
2015-08-30T00:24:50.517Z,74950
2015-08-30T00:25:02.892Z,74947
2015-08-30T00:25:15.268Z,74952
2015-08-30T00:25:27.643Z,74948
2015-08-30T00:25:40.018Z,74947
2015-08-30T00:25:52.409Z,74945
2015-08-30T00:26:04.799Z,74948
2015-08-30T00:26:17.177Z,74945
2015-08-30T00:26:29.552Z,74947
2015-08-30T00:26:41.927Z,74943
2015-08-30T00:26:54.302Z,74950
2015-08-30T00:27:06.693Z,74952
2015-08-30T00:27:19.069Z,74944
2015-08-30T00:27:31.459Z,74945
2015-08-30T00:27:43.834Z,74952
2015-08-30T00:27:56.209Z,74947
2015-08-30T00:28:08.584Z,74949
2015-08-30T00:28:20.961Z,74947
2015-08-30T00:28:32.633Z,74948
2015-08-30T00:28:45.008Z,74949
2015-08-30T00:28:57.399Z,74945
2015-08-30T00:29:09.774Z,74950
2015-08-30T00:29:22.151Z,74949
2015-08-30T00:29:34.526Z,74946
2015-08-30T00:29:46.901Z,74947
2015-08-30T00:29:59.292Z,74947
2015-08-30T00:30:11.682Z,74943
2015-08-30T00:30:24.075Z,74942
2015-08-30T00:30:36.465Z,74947
2015-08-30T00:30:48.856Z,74947
2015-08-30T00:31:01.231Z,74940
2015-08-30T00:31:13.622Z,74946
2015-08-30T00:31:26.015Z,74949
2015-08-30T00:31:38.437Z,74941
2015-08-30T00:31:50.859Z,74948
2015-08-30T00:32:03.265Z,74951
2015-08-30T00:32:15.656Z,74941
2015-08-30T00:32:28.079Z,74943
2015-08-30T00:32:40.485Z,74946
2015-08-30T00:32:52.891Z,74949
2015-08-30T00:33:05.313Z,74946
2015-08-30T00:33:17.719Z,74944
2015-08-30T00:33:30.128Z,74940
2015-08-30T00:33:42.550Z,74940
2015-08-30T00:33:54.925Z,74941
2015-08-30T00:34:07.315Z,74943
2015-08-30T00:34:19.690Z,74941
2015-08-30T00:34:32.068Z,74940
2015-08-30T00:34:44.443Z,74942
2015-08-30T00:34:56.834Z,74937
2015-08-30T00:35:09.209Z,74942
2015-08-30T00:35:21.584Z,74941
2015-08-30T00:35:33.960Z,74942
2015-08-30T00:35:46.335Z,74943
2015-08-30T00:35:58.710Z,74943
2015-08-30T00:36:11.085Z,74942
2015-08-30T00:36:23.460Z,74943
2015-08-30T00:36:35.837Z,74946
2015-08-30T00:36:48.212Z,74941
2015-08-30T00:37:00.602Z,74949
2015-08-30T00:37:13.009Z,74947
2015-08-30T00:37:25.384Z,74949
2015-08-30T00:37:37.761Z,74946
2015-08-30T00:37:50.136Z,74942
2015-08-30T00:38:02.511Z,74937
2015-08-30T00:38:14.886Z,74935
2015-08-30T00:38:27.276Z,74942
2015-08-30T00:38:39.654Z,74936
2015-08-30T00:38:52.029Z,74941
2015-08-30T00:39:04.404Z,74936
2015-08-30T00:39:16.779Z,74935
2015-08-30T00:39:29.154Z,74930
2015-08-30T00:39:41.546Z,74926
2015-08-30T00:39:53.937Z,74937
2015-08-30T00:40:06.327Z,74938
2015-08-30T00:40:17.999Z,74937
2015-08-30T00:40:30.405Z,74931
2015-08-30T00:40:42.783Z,74934
2015-08-30T00:40:55.190Z,74929
2015-08-30T00:41:07.596Z,74934
2015-08-30T00:41:20.002Z,74932
2015-08-30T00:41:32.408Z,74930
2015-08-30T00:41:44.816Z,74935
2015-08-30T00:41:57.222Z,74938
2015-08-30T00:42:09.628Z,74934
2015-08-30T00:42:22.050Z,74935
2015-08-30T00:42:34.472Z,74935
2015-08-30T00:42:46.864Z,74940
2015-08-30T00:42:59.255Z,74935
2015-08-30T00:43:11.661Z,74940
2015-08-30T00:43:24.068Z,74940
2015-08-30T00:43:36.521Z,74938
2015-08-30T00:43:48.898Z,74934
2015-08-30T00:44:01.273Z,74937
2015-08-30T00:44:13.648Z,74934
2015-08-30T00:44:26.023Z,74935
2015-08-30T00:44:38.398Z,74942
2015-08-30T00:44:50.775Z,74938
2015-08-30T00:45:03.150Z,74940
2015-08-30T00:45:15.540Z,74935
2015-08-30T00:45:27.915Z,74938
2015-08-30T00:45:40.290Z,74932
2015-08-30T00:45:52.667Z,74932
2015-08-30T00:46:05.042Z,74934
2015-08-30T00:46:17.417Z,74931
2015-08-30T00:46:29.792Z,74937
2015-08-30T00:46:42.183Z,74934
2015-08-30T00:46:54.576Z,74938
2015-08-30T00:47:06.951Z,74934
2015-08-30T00:47:19.326Z,74931
2015-08-30T00:47:31.701Z,74941
2015-08-30T00:47:44.076Z,74929
2015-08-30T00:47:56.453Z,74934
2015-08-30T00:48:08.859Z,74933
2015-08-30T00:48:21.234Z,74932
2015-08-30T00:48:33.609Z,74933
2015-08-30T00:48:45.984Z,74932
2015-08-30T00:48:58.361Z,74928
2015-08-30T00:49:10.751Z,74937
2015-08-30T00:49:23.126Z,74935
2015-08-30T00:49:34.798Z,74940
2015-08-30T00:49:47.189Z,74938
2015-08-30T00:49:59.582Z,74943
2015-08-30T00:50:11.957Z,74933
2015-08-30T00:50:24.347Z,74941
2015-08-30T00:50:36.753Z,74937
2015-08-30T00:50:49.160Z,74937
2015-08-30T00:51:01.584Z,74938
2015-08-30T00:51:13.990Z,74934
2015-08-30T00:51:26.380Z,74937
2015-08-30T00:51:38.787Z,74935
2015-08-30T00:51:51.209Z,74938
2015-08-30T00:52:03.617Z,74939
2015-08-30T00:52:16.007Z,74938
2015-08-30T00:52:28.398Z,74935
2015-08-30T00:52:40.773Z,74934
2015-08-30T00:52:53.195Z,74937
2015-08-30T00:53:05.603Z,74934
2015-08-30T00:53:17.978Z,74935
2015-08-30T00:53:30.353Z,74939
2015-08-30T00:53:42.744Z,74931
2015-08-30T00:53:55.150Z,74935
2015-08-30T00:54:07.527Z,74936
2015-08-30T00:54:19.902Z,74937
2015-08-30T00:54:32.293Z,74939
2015-08-30T00:54:44.683Z,74937
2015-08-30T00:54:57.058Z,74943
2015-08-30T00:55:09.435Z,74933
2015-08-30T00:55:21.810Z,74938
2015-08-30T00:55:34.185Z,74934
2015-08-30T00:55:46.560Z,74933
2015-08-30T00:55:58.951Z,74936
2015-08-30T00:56:11.344Z,74930
2015-08-30T00:56:23.719Z,74929
2015-08-30T00:56:36.094Z,74930
2015-08-30T00:56:48.469Z,74928
2015-08-30T00:57:00.844Z,74937
2015-08-30T00:57:13.220Z,74929
2015-08-30T00:57:25.595Z,74930
2015-08-30T00:57:37.985Z,74935
2015-08-30T00:57:50.360Z,74927
2015-08-30T00:58:02.735Z,74931
2015-08-30T00:58:15.113Z,74938
2015-08-30T00:58:27.488Z,74939
2015-08-30T00:58:39.863Z,74934
2015-08-30T00:58:52.238Z,74937
2015-08-30T00:59:03.926Z,74935
2015-08-30T00:59:16.318Z,74932
2015-08-30T00:59:28.709Z,74933
2015-08-30T00:59:41.084Z,74930
2015-08-30T00:59:53.490Z,74932
2015-08-30T01:00:05.865Z,74934
2015-08-30T01:00:18.272Z,74933
2015-08-30T01:00:30.694Z,74934
2015-08-30T01:00:43.101Z,74935
2015-08-30T01:00:55.507Z,74931
2015-08-30T01:01:07.913Z,74934
2015-08-30T01:01:20.322Z,74932
2015-08-30T01:01:32.729Z,74934
2015-08-30T01:01:45.135Z,74935
2015-08-30T01:01:57.541Z,74931
2015-08-30T01:02:09.947Z,74934
2015-08-30T01:02:22.371Z,74934
2015-08-30T01:02:34.746Z,74929
2015-08-30T01:02:47.137Z,74940
2015-08-30T01:02:59.527Z,74935
2015-08-30T01:03:11.902Z,74934
2015-08-30T01:03:24.295Z,74931
2015-08-30T01:03:36.670Z,74933
2015-08-30T01:03:49.045Z,74933
2015-08-30T01:04:01.436Z,74926
2015-08-30T01:04:13.811Z,74932
2015-08-30T01:04:26.187Z,74928
2015-08-30T01:04:38.562Z,74928
2015-08-30T01:04:50.937Z,74926
2015-08-30T01:05:03.312Z,74925
2015-08-30T01:05:15.687Z,74931
2015-08-30T01:05:28.064Z,74924
2015-08-30T01:05:40.454Z,74928
2015-08-30T01:05:52.126Z,74932
2015-08-30T01:06:04.501Z,74930
2015-08-30T01:06:16.892Z,74925
2015-08-30T01:06:29.270Z,74925
2015-08-30T01:06:40.942Z,74926
2015-08-30T01:06:53.332Z,74929
2015-08-30T01:07:05.707Z,74934
2015-08-30T01:07:18.082Z,74930
2015-08-30T01:07:30.522Z,74923
2015-08-30T01:07:42.897Z,74929
2015-08-30T01:07:55.272Z,74927
2015-08-30T01:08:07.647Z,74931
2015-08-30T01:08:20.037Z,74929
2015-08-30T01:08:32.430Z,74931
2015-08-30T01:08:44.805Z,74926
2015-08-30T01:08:56.493Z,74933
2015-08-30T01:09:08.883Z,74934
2015-08-30T01:09:21.274Z,74931
2015-08-30T01:09:33.698Z,74930
2015-08-30T01:09:46.104Z,74939
2015-08-30T01:09:58.510Z,74926
2015-08-30T01:10:10.916Z,74934
2015-08-30T01:10:23.323Z,74933
2015-08-30T01:10:35.715Z,74928
2015-08-30T01:10:48.122Z,74927
2015-08-30T01:11:00.528Z,74929
2015-08-30T01:11:12.950Z,74927
2015-08-30T01:11:25.340Z,74936
2015-08-30T01:11:37.748Z,74933
2015-08-30T01:11:50.169Z,74932
2015-08-30T01:12:02.591Z,74929
2015-08-30T01:12:14.966Z,74925
2015-08-30T01:12:27.341Z,74927
2015-08-30T01:12:39.719Z,74939
2015-08-30T01:12:52.094Z,74932
2015-08-30T01:13:04.469Z,74928
2015-08-30T01:13:16.860Z,74926
2015-08-30T01:13:29.235Z,74931
2015-08-30T01:13:41.627Z,74936
2015-08-30T01:13:54.017Z,74930
2015-08-30T01:14:06.392Z,74931
2015-08-30T01:14:18.767Z,74927
2015-08-30T01:14:31.142Z,74933
2015-08-30T01:14:43.520Z,74936
2015-08-30T01:14:55.895Z,74933
2015-08-30T01:15:08.286Z,74930
2015-08-30T01:15:20.661Z,74930
2015-08-30T01:15:33.036Z,74942
2015-08-30T01:15:45.412Z,74932
2015-08-30T01:15:57.787Z,74936
2015-08-30T01:16:10.162Z,74937
2015-08-30T01:16:21.818Z,74934
2015-08-30T01:16:34.209Z,74932
2015-08-30T01:16:46.586Z,74936
2015-08-30T01:16:58.961Z,74940
2015-08-30T01:17:11.351Z,74935
2015-08-30T01:17:23.023Z,74930
2015-08-30T01:17:35.398Z,74924
2015-08-30T01:17:47.776Z,74933
2015-08-30T01:18:00.167Z,74936
2015-08-30T01:18:12.557Z,74931
2015-08-30T01:18:24.932Z,74927
2015-08-30T01:18:37.323Z,74928
2015-08-30T01:18:49.699Z,74929
2015-08-30T01:19:02.090Z,74932
2015-08-30T01:19:14.496Z,74934
2015-08-30T01:19:26.918Z,74927
2015-08-30T01:19:39.308Z,74928
2015-08-30T01:19:51.717Z,74928
2015-08-30T01:20:04.107Z,74931
2015-08-30T01:20:16.514Z,74934
2015-08-30T01:20:28.920Z,74930
2015-08-30T01:20:41.326Z,74926
2015-08-30T01:20:53.751Z,74932
2015-08-30T01:21:06.157Z,74932
2015-08-30T01:21:18.563Z,74930
2015-08-30T01:21:30.970Z,74927
2015-08-30T01:21:43.345Z,74926
2015-08-30T01:21:55.721Z,74934
2015-08-30T01:22:08.096Z,74929
2015-08-30T01:22:20.471Z,74927
2015-08-30T01:22:32.830Z,74924
2015-08-30T01:22:45.205Z,74927
2015-08-30T01:22:57.582Z,74930
2015-08-30T01:23:09.973Z,74931
2015-08-30T01:23:22.348Z,74927
2015-08-30T01:23:34.004Z,74927
2015-08-30T01:23:46.379Z,74929
2015-08-30T01:23:58.756Z,74931
2015-08-30T01:24:11.131Z,74933
2015-08-30T01:24:23.506Z,74928
2015-08-30T01:24:35.912Z,74927
2015-08-30T01:24:48.287Z,74928
2015-08-30T01:25:00.664Z,74925
2015-08-30T01:25:13.039Z,74929
2015-08-30T01:25:25.414Z,74928
2015-08-30T01:25:37.789Z,74925
2015-08-30T01:25:50.164Z,74925
2015-08-30T01:26:02.557Z,74923
2015-08-30T01:26:14.932Z,74923
2015-08-30T01:26:27.307Z,74922
2015-08-30T01:26:39.682Z,74923
2015-08-30T01:26:52.057Z,74921
2015-08-30T01:27:04.434Z,74929
2015-08-30T01:27:16.824Z,74921
2015-08-30T01:27:29.199Z,74919
2015-08-30T01:27:41.590Z,74920
2015-08-30T01:27:53.262Z,74924
2015-08-30T01:28:05.686Z,74919
2015-08-30T01:28:18.076Z,74915
2015-08-30T01:28:30.483Z,74921
2015-08-30T01:28:42.889Z,74921
2015-08-30T01:28:55.311Z,74918
2015-08-30T01:29:07.719Z,74925
2015-08-30T01:29:20.125Z,74917
2015-08-30T01:29:32.532Z,74918
2015-08-30T01:29:44.938Z,74924
2015-08-30T01:29:57.344Z,74923
2015-08-30T01:30:09.768Z,74924
2015-08-30T01:30:22.174Z,74922
2015-08-30T01:30:33.862Z,74921
2015-08-30T01:30:46.268Z,74918
2015-08-30T01:30:58.674Z,74911
2015-08-30T01:31:11.051Z,74920
2015-08-30T01:31:23.426Z,74916
2015-08-30T01:31:35.801Z,74919
2015-08-30T01:31:48.176Z,74918
2015-08-30T01:32:00.551Z,74918
2015-08-30T01:32:12.913Z,74916
2015-08-30T01:32:24.584Z,74912
2015-08-30T01:32:36.959Z,74914
2015-08-30T01:32:49.334Z,74913
2015-08-30T01:33:01.709Z,74910
2015-08-30T01:33:13.383Z,74909
2015-08-30T01:33:25.758Z,74913
2015-08-30T01:33:38.133Z,74912
2015-08-30T01:33:50.508Z,74919
2015-08-30T01:34:02.899Z,74916
2015-08-30T01:34:15.276Z,74916
2015-08-30T01:34:27.651Z,74906
2015-08-30T01:34:40.026Z,74912
2015-08-30T01:34:52.401Z,74915
2015-08-30T01:35:04.792Z,74915
2015-08-30T01:35:17.184Z,74911
2015-08-30T01:35:28.872Z,74913
2015-08-30T01:35:41.247Z,74914
2015-08-30T01:35:53.622Z,74914
2015-08-30T01:36:05.997Z,74917
2015-08-30T01:36:18.374Z,74917
2015-08-30T01:36:30.046Z,74917
2015-08-30T01:36:42.421Z,74915
2015-08-30T01:36:54.811Z,74914
2015-08-30T01:37:07.202Z,74909
2015-08-30T01:37:19.579Z,74911
2015-08-30T01:37:31.969Z,74912
2015-08-30T01:37:44.360Z,74916
2015-08-30T01:37:56.766Z,74921
2015-08-30T01:38:09.157Z,74918
2015-08-30T01:38:21.581Z,74918
2015-08-30T01:38:34.003Z,74915
2015-08-30T01:38:46.409Z,74912
2015-08-30T01:38:58.831Z,74912
2015-08-30T01:39:11.237Z,74914
2015-08-30T01:39:23.645Z,74912
2015-08-30T01:39:36.067Z,74911
2015-08-30T01:39:48.473Z,74911
2015-08-30T01:40:00.880Z,74909
2015-08-30T01:40:13.286Z,74910
2015-08-30T01:40:25.710Z,74914
2015-08-30T01:40:38.085Z,74912
2015-08-30T01:40:50.444Z,74910
2015-08-30T01:41:02.819Z,74908
2015-08-30T01:41:15.194Z,74913
2015-08-30T01:41:27.571Z,74912
2015-08-30T01:41:39.946Z,74910
2015-08-30T01:41:52.321Z,74910
2015-08-30T01:42:04.712Z,74912
2015-08-30T01:42:17.071Z,74911
2015-08-30T01:42:29.448Z,74911
2015-08-30T01:42:41.839Z,74908
2015-08-30T01:42:54.214Z,74907
2015-08-30T01:43:06.589Z,74907
2015-08-30T01:43:18.964Z,74908
2015-08-30T01:43:31.340Z,74908
2015-08-30T01:43:43.730Z,74908
2015-08-30T01:43:56.105Z,74911
2015-08-30T01:44:08.480Z,74912
2015-08-30T01:44:20.855Z,74910
2015-08-30T01:44:33.232Z,74914
2015-08-30T01:44:45.607Z,74910
2015-08-30T01:44:57.279Z,74914
2015-08-30T01:45:09.670Z,74907
2015-08-30T01:45:22.045Z,74915
2015-08-30T01:45:33.720Z,74906
2015-08-30T01:45:46.095Z,74908
2015-08-30T01:45:58.470Z,74910
2015-08-30T01:46:10.845Z,74907
2015-08-30T01:46:23.235Z,74911
2015-08-30T01:46:35.628Z,74907
2015-08-30T01:46:48.019Z,74907
2015-08-30T01:47:00.409Z,74906
2015-08-30T01:47:12.784Z,74912
2015-08-30T01:47:25.191Z,74907
2015-08-30T01:47:37.599Z,74915
2015-08-30T01:47:50.021Z,74910
2015-08-30T01:48:02.427Z,74915
2015-08-30T01:48:14.833Z,74910
2015-08-30T01:48:27.239Z,74917
2015-08-30T01:48:39.647Z,74910
2015-08-30T01:48:52.053Z,74916
2015-08-30T01:49:04.490Z,74909
2015-08-30T01:49:16.897Z,74918
2015-08-30T01:49:29.303Z,74913
2015-08-30T01:49:41.743Z,74915
2015-08-30T01:49:54.103Z,74904
2015-08-30T01:50:06.478Z,74913
2015-08-30T01:50:18.853Z,74912
2015-08-30T01:50:31.228Z,74905
2015-08-30T01:50:43.604Z,74915
2015-08-30T01:50:55.979Z,74912
2015-08-30T01:51:08.354Z,74911
2015-08-30T01:51:20.744Z,74907
2015-08-30T01:51:33.119Z,74909
2015-08-30T01:51:45.496Z,74913
2015-08-30T01:51:57.153Z,74910
2015-08-30T01:52:09.528Z,74914
2015-08-30T01:52:21.903Z,74917
2015-08-30T01:52:34.278Z,74909
2015-08-30T01:52:46.670Z,74909
2015-08-30T01:52:59.045Z,74908
2015-08-30T01:53:11.420Z,74912
2015-08-30T01:53:23.795Z,74907
2015-08-30T01:53:36.170Z,74911
2015-08-30T01:53:48.548Z,74910
2015-08-30T01:54:00.923Z,74912
2015-08-30T01:54:13.314Z,74911
2015-08-30T01:54:25.689Z,74909
2015-08-30T01:54:38.064Z,74912
2015-08-30T01:54:50.440Z,74907
2015-08-30T01:55:02.815Z,74910
2015-08-30T01:55:15.190Z,74906
2015-08-30T01:55:27.565Z,74905
2015-08-30T01:55:39.924Z,74911
2015-08-30T01:55:52.333Z,74908
2015-08-30T01:56:04.770Z,74915
2015-08-30T01:56:17.161Z,74907
2015-08-30T01:56:29.551Z,74913
2015-08-30T01:56:41.942Z,74909
2015-08-30T01:56:54.335Z,74913
2015-08-30T01:57:06.741Z,74907
2015-08-30T01:57:19.163Z,74911
2015-08-30T01:57:31.585Z,74903
2015-08-30T01:57:43.272Z,74905
2015-08-30T01:57:55.680Z,74906
2015-08-30T01:58:08.087Z,74903
2015-08-30T01:58:20.508Z,74906
2015-08-30T01:58:32.915Z,74907
2015-08-30T01:58:44.618Z,74906
2015-08-30T01:58:57.026Z,74908
2015-08-30T01:59:09.432Z,74906
2015-08-30T01:59:21.839Z,74905
2015-08-30T01:59:34.229Z,74901
2015-08-30T01:59:46.620Z,74908
2015-08-30T01:59:58.997Z,74909
2015-08-30T02:00:11.372Z,74905
2015-08-30T02:00:23.747Z,74905
2015-08-30T02:00:36.122Z,74903
2015-08-30T02:00:48.512Z,74906
2015-08-30T02:01:00.905Z,74905
2015-08-30T02:01:13.280Z,74900
2015-08-30T02:01:25.671Z,74906
2015-08-30T02:01:38.046Z,74900
2015-08-30T02:01:50.421Z,74909
2015-08-30T02:02:02.798Z,74903
2015-08-30T02:02:15.173Z,74906
2015-08-30T02:02:27.563Z,74906
2015-08-30T02:02:39.235Z,74905
2015-08-30T02:02:51.610Z,74903
2015-08-30T02:03:03.988Z,74909
2015-08-30T02:03:16.363Z,74902
2015-08-30T02:03:28.738Z,74908
2015-08-30T02:03:41.113Z,74905
2015-08-30T02:03:53.504Z,74909
2015-08-30T02:04:05.880Z,74904
2015-08-30T02:04:17.552Z,74905
2015-08-30T02:04:29.927Z,74900
2015-08-30T02:04:41.583Z,74903
2015-08-30T02:04:53.958Z,74900
2015-08-30T02:05:06.319Z,74902
2015-08-30T02:05:18.726Z,74900
2015-08-30T02:05:31.116Z,74900
2015-08-30T02:05:43.507Z,74906
2015-08-30T02:05:55.897Z,74904
2015-08-30T02:06:08.290Z,74901
2015-08-30T02:06:19.978Z,74901
2015-08-30T02:06:32.399Z,74900
2015-08-30T02:06:44.806Z,74898
2015-08-30T02:06:57.212Z,74904
2015-08-30T02:07:09.620Z,74897
2015-08-30T02:07:22.026Z,74901
2015-08-30T02:07:34.433Z,74899
2015-08-30T02:07:46.839Z,74904
2015-08-30T02:07:59.245Z,74904
2015-08-30T02:08:11.669Z,74900
2015-08-30T02:08:24.075Z,74905
2015-08-30T02:08:36.482Z,74902
2015-08-30T02:08:48.857Z,74908
2015-08-30T02:09:01.232Z,74898
2015-08-30T02:09:13.609Z,74903
2015-08-30T02:09:25.984Z,74901
2015-08-30T02:09:38.359Z,74901
2015-08-30T02:09:50.734Z,74903
2015-08-30T02:10:03.109Z,74903
2015-08-30T02:10:15.501Z,74898
2015-08-30T02:10:27.876Z,74901
2015-08-30T02:10:40.251Z,74896
2015-08-30T02:10:52.626Z,74907
2015-08-30T02:11:05.001Z,74898
2015-08-30T02:11:17.378Z,74901
2015-08-30T02:11:29.753Z,74902
2015-08-30T02:11:42.128Z,74905
2015-08-30T02:11:54.503Z,74901
2015-08-30T02:12:06.878Z,74899
2015-08-30T02:12:19.255Z,74900
2015-08-30T02:12:31.630Z,74906
2015-08-30T02:12:44.005Z,74903
2015-08-30T02:12:56.380Z,74899
2015-08-30T02:13:08.771Z,74901
2015-08-30T02:13:21.148Z,74901
2015-08-30T02:13:33.523Z,74905
2015-08-30T02:13:45.898Z,74903
2015-08-30T02:13:58.273Z,74901
2015-08-30T02:14:10.648Z,74903
2015-08-30T02:14:23.025Z,74906
2015-08-30T02:14:35.415Z,74904
2015-08-30T02:14:47.806Z,74898
2015-08-30T02:15:00.197Z,74901
2015-08-30T02:15:12.572Z,74899
2015-08-30T02:15:24.949Z,74908
2015-08-30T02:15:37.339Z,74897
2015-08-30T02:15:49.746Z,74903
2015-08-30T02:16:02.167Z,74900
2015-08-30T02:16:14.558Z,74904
2015-08-30T02:16:26.966Z,74901
2015-08-30T02:16:38.654Z,74898
2015-08-30T02:16:51.060Z,74906
2015-08-30T02:17:03.466Z,74900
2015-08-30T02:17:15.888Z,74901
2015-08-30T02:17:28.296Z,74898
2015-08-30T02:17:40.703Z,74904
2015-08-30T02:17:53.125Z,74905
2015-08-30T02:18:05.500Z,74901
2015-08-30T02:18:17.875Z,74904
2015-08-30T02:18:30.267Z,74904
2015-08-30T02:18:42.642Z,74902
2015-08-30T02:18:55.033Z,74902
2015-08-30T02:19:07.408Z,74896
2015-08-30T02:19:19.783Z,74901
2015-08-30T02:19:32.175Z,74902
2015-08-30T02:19:44.550Z,74898
2015-08-30T02:19:56.910Z,74897
2015-08-30T02:20:09.285Z,74900
2015-08-30T02:20:21.660Z,74898
2015-08-30T02:20:34.037Z,74901
2015-08-30T02:20:46.412Z,74901
2015-08-30T02:20:58.802Z,74897
2015-08-30T02:21:11.177Z,74900
2015-08-30T02:21:23.552Z,74904
2015-08-30T02:21:35.928Z,74897
2015-08-30T02:21:48.303Z,74897
2015-08-30T02:22:00.678Z,74902
2015-08-30T02:22:13.053Z,74904
2015-08-30T02:22:25.444Z,74895
2015-08-30T02:22:37.838Z,74902
2015-08-30T02:22:50.213Z,74901
2015-08-30T02:23:02.588Z,74905
2015-08-30T02:23:14.963Z,74897
2015-08-30T02:23:27.338Z,74898
2015-08-30T02:23:39.715Z,74900
2015-08-30T02:23:52.090Z,74899
2015-08-30T02:24:04.496Z,74901
2015-08-30T02:24:16.871Z,74896
2015-08-30T02:24:29.277Z,74896
2015-08-30T02:24:41.670Z,74898
2015-08-30T02:24:54.076Z,74900
2015-08-30T02:25:06.498Z,74899
2015-08-30T02:25:18.920Z,74900
2015-08-30T02:25:31.310Z,74900
2015-08-30T02:25:43.000Z,74897
2015-08-30T02:25:55.406Z,74901
2015-08-30T02:26:07.828Z,74900
2015-08-30T02:26:20.297Z,74903
2015-08-30T02:26:32.703Z,74904
2015-08-30T02:26:45.127Z,74899
2015-08-30T02:26:57.533Z,74905
2015-08-30T02:27:09.939Z,74903
2015-08-30T02:27:22.314Z,74903
2015-08-30T02:27:34.689Z,74899
2015-08-30T02:27:47.082Z,74903
2015-08-30T02:27:59.457Z,74900
2015-08-30T02:28:11.832Z,74898
2015-08-30T02:28:24.207Z,74906
2015-08-30T02:28:36.582Z,74902
2015-08-30T02:28:48.256Z,74901
2015-08-30T02:29:00.631Z,74902
2015-08-30T02:29:13.006Z,74901
2015-08-30T02:29:25.381Z,74894
2015-08-30T02:29:37.756Z,74894
2015-08-30T02:29:50.133Z,74897
2015-08-30T02:30:02.508Z,74903
2015-08-30T02:30:14.899Z,74896
2015-08-30T02:30:27.289Z,74897
2015-08-30T02:30:39.664Z,74895
2015-08-30T02:30:52.057Z,74901
2015-08-30T02:31:04.432Z,74899
2015-08-30T02:31:16.807Z,74903
2015-08-30T02:31:29.182Z,74900
2015-08-30T02:31:40.869Z,74899
2015-08-30T02:31:53.246Z,74900
2015-08-30T02:32:05.621Z,74898
2015-08-30T02:32:17.996Z,74897
2015-08-30T02:32:30.371Z,74894
2015-08-30T02:32:42.746Z,74895
2015-08-30T02:32:55.123Z,74897
2015-08-30T02:33:07.514Z,74895
2015-08-30T02:33:19.905Z,74897
2015-08-30T02:33:32.295Z,74898
2015-08-30T02:33:44.686Z,74891
2015-08-30T02:33:57.077Z,74898
2015-08-30T02:34:09.484Z,74895
2015-08-30T02:34:21.874Z,74897
2015-08-30T02:34:34.281Z,74901
2015-08-30T02:34:46.687Z,74893
2015-08-30T02:34:59.095Z,74903
2015-08-30T02:35:11.501Z,74893
2015-08-30T02:35:23.923Z,74906
2015-08-30T02:35:36.329Z,74897
2015-08-30T02:35:48.720Z,74903
2015-08-30T02:36:01.145Z,74900
2015-08-30T02:36:13.536Z,74897
2015-08-30T02:36:25.942Z,74898
2015-08-30T02:36:38.348Z,74902
2015-08-30T02:36:50.770Z,74902
2015-08-30T02:37:03.147Z,74895
2015-08-30T02:37:15.522Z,74899
2015-08-30T02:37:27.897Z,74901
2015-08-30T02:37:40.272Z,74904
2015-08-30T02:37:52.631Z,74899
2015-08-30T02:38:05.023Z,74901
2015-08-30T02:38:17.398Z,74903
2015-08-30T02:38:29.789Z,74898
2015-08-30T02:38:42.164Z,74902
2015-08-30T02:38:53.835Z,74898
2015-08-30T02:39:06.212Z,74897